Time;durP1;ratioP1;P1;durP2;ratioP2;P2;SDS_P1;SDS_P2;PMS_P1;PMS_P2;Temp;Humidity;BMP_temperature;BMP_pressure;BME280_temperature;BME280_humidity;BME280_pressure;Samples;Min_cycle;Max_cycle;Signal;HPM_P1;HPM_P2
2022/10/08 00:01:50;;;;;;;;;1.00;0.00;;;;;14.24;76.44;101548.53;4898756;29;9028;-64
2022/10/08 00:04:16;;;;;;;;;1.00;1.00;;;;;14.22;76.46;101547.94;4907759;29;9087;-64
2022/10/08 00:06:43;;;;;;;;;1.00;0.00;;;;;14.21;76.64;101543.53;4910021;29;9108;-64
2022/10/08 00:09:09;;;;;;;;;0.33;0.00;;;;;14.21;76.96;101540.81;4916779;29;9197;-64
2022/10/08 00:11:38;;;;;;;;;2.00;0.00;;;;;14.20;77.07;101536.44;4920555;29;9142;-64
2022/10/08 00:14:05;;;;;;;;;0.00;0.00;;;;;14.20;77.06;101535.59;4915560;29;9232;-64
2022/10/08 00:16:39;;;;;;;;;0.00;0.00;;;;;14.19;77.29;101536.66;4914057;29;9044;-64
2022/10/08 00:19:09;;;;;;;;;0.00;0.00;;;;;14.18;77.01;101545.78;4914901;29;9050;-63
2022/10/08 00:21:39;;;;;;;;;0.00;0.00;;;;;14.16;77.35;101542.47;4914545;29;9127;-64
2022/10/08 00:24:07;;;;;;;;;0.33;0.33;;;;;14.15;77.31;101546.22;4918173;29;9059;-64
2022/10/08 00:26:34;;;;;;;;;1.00;0.00;;;;;14.13;77.02;101542.84;4902631;29;9219;-64
2022/10/08 00:29:12;;;;;;;;;0.00;0.00;;;;;14.08;77.09;101547.00;4918526;29;9016;-64
2022/10/08 00:31:40;;;;;;;;;1.00;0.00;;;;;14.07;76.83;101547.22;4915100;29;9005;-64
2022/10/08 00:34:09;;;;;;;;;0.00;0.00;;;;;14.07;77.53;101541.78;4921627;29;9111;-64
2022/10/08 00:36:38;;;;;;;;;0.00;0.00;;;;;14.06;77.32;101545.56;4913419;29;9152;-64
2022/10/08 00:39:14;;;;;;;;;0.00;0.00;;;;;14.05;77.31;101539.28;4922597;29;8942;-63
2022/10/08 00:41:43;;;;;;;;;0.00;0.00;;;;;14.05;77.10;101538.44;4914733;29;9107;-63
2022/10/08 00:44:46;;;;;;;;;0.00;0.00;;;;;14.05;76.96;101549.25;4915066;29;9021;-63
2022/10/08 00:47:48;;;;;;;;;0.00;0.00;;;;;14.03;77.35;101554.06;4913892;29;9092;-62
2022/10/08 00:50:23;;;;;;;;;0.00;0.00;;;;;14.02;77.04;101560.53;4905647;29;9226;-63
2022/10/08 00:52:57;;;;;;;;;0.67;0.67;;;;;14.01;77.04;101556.94;4907665;29;9323;-63
2022/10/08 00:55:28;;;;;;;;;2.00;1.00;;;;;13.98;76.96;101546.53;4895940;29;9090;-64
2022/10/08 00:58:01;;;;;;;;;1.33;1.00;;;;;13.97;77.33;101552.13;4903895;29;10074;-64
2022/10/08 01:00:28;;;;;;;;;0.00;0.00;;;;;13.93;77.19;101554.41;4927938;29;9025;-64
2022/10/08 01:02:55;;;;;;;;;1.00;0.00;;;;;13.92;77.13;101544.63;4910625;29;9008;-64
2022/10/08 01:05:33;;;;;;;;;1.00;0.00;;;;;13.91;76.78;101547.53;4922090;29;9051;-64
2022/10/08 01:08:19;;;;;;;;;0.00;0.00;;;;;13.88;77.29;101547.94;4914659;29;9245;-64
2022/10/08 01:10:59;;;;;;;;;0.00;0.00;;;;;13.87;77.34;101555.22;4914478;29;9840;-65
2022/10/08 01:13:48;;;;;;;;;0.00;0.00;;;;;13.87;77.30;101552.50;4904037;29;9336;-64
2022/10/08 01:16:53;;;;;;;;;0.00;0.00;;;;;13.87;76.83;101543.56;4910997;29;9044;-64
2022/10/08 01:19:53;;;;;;;;;0.00;0.00;;;;;13.83;77.09;101552.06;4914337;29;9208;-64
2022/10/08 01:22:38;;;;;;;;;0.00;0.00;;;;;13.82;76.94;101547.69;4914317;29;9176;-65
2022/10/08 01:25:52;;;;;;;;;0.00;0.00;;;;;13.76;76.94;101543.06;4914145;29;9286;-64
2022/10/08 01:28:26;;;;;;;;;0.00;0.00;;;;;13.73;77.11;101543.47;4912743;29;9259;-64
2022/10/08 01:30:52;;;;;;;;;0.00;0.00;;;;;13.73;76.97;101548.88;4920632;29;9341;-65
2022/10/08 01:33:31;;;;;;;;;0.00;0.00;;;;;13.74;77.08;101550.56;4925036;29;9492;-65
2022/10/08 01:36:00;;;;;;;;;1.00;0.00;;;;;13.73;76.90;101542.63;4921564;29;9337;-65
2022/10/08 01:38:32;;;;;;;;;0.00;0.00;;;;;13.73;76.67;101548.03;4914166;29;9169;-64
2022/10/08 01:41:05;;;;;;;;;0.00;0.00;;;;;13.71;76.71;101547.41;4912299;29;9243;-64
2022/10/08 01:43:36;;;;;;;;;1.00;1.00;;;;;13.69;76.57;101541.34;4915106;29;9205;-64
2022/10/08 01:46:15;;;;;;;;;0.00;0.00;;;;;13.66;76.13;101536.34;4908739;29;9920;-63
2022/10/08 01:48:43;;;;;;;;;1.67;0.00;;;;;13.63;76.49;101542.16;4918636;29;9198;-64
2022/10/08 01:51:25;;;;;;;;;1.00;1.00;;;;;13.60;76.36;101541.50;4913321;29;9079;-64
2022/10/08 01:53:52;;;;;;;;;0.00;0.00;;;;;13.61;76.34;101545.03;4912682;29;9323;-65
2022/10/08 01:56:24;;;;;;;;;0.00;0.00;;;;;13.59;76.26;101547.94;4913624;29;10048;-64
2022/10/08 01:58:57;;;;;;;;;1.00;1.00;;;;;13.56;76.17;101553.75;4912660;29;9357;-64
2022/10/08 02:01:31;;;;;;;;;0.00;0.00;;;;;13.54;76.21;101554.97;4914341;29;9341;-65
2022/10/08 02:06:49;;;;;;;;;1.00;0.00;;;;;13.49;76.05;101552.00;4913758;29;9363;-65
2022/10/08 02:09:17;;;;;;;;;0.67;0.00;;;;;13.46;76.07;101557.84;4913710;29;9992;-65
2022/10/08 02:11:43;;;;;;;;;0.00;0.00;;;;;13.43;76.24;101555.50;4913690;29;9407;-65
2022/10/08 02:14:10;;;;;;;;;0.00;0.00;;;;;13.41;76.10;101553.00;4911370;29;9288;-65
2022/10/08 02:16:46;;;;;;;;;0.00;0.00;;;;;13.38;76.21;101552.56;4920881;29;10115;-65
2022/10/08 02:19:34;;;;;;;;;0.67;0.00;;;;;13.37;76.09;101554.44;4913565;29;9471;-65
2022/10/08 02:22:04;;;;;;;;;2.00;0.67;;;;;13.37;76.45;101549.03;4913766;29;10101;-65
2022/10/08 02:24:45;;;;;;;;;0.00;0.00;;;;;13.40;76.31;101558.59;4913647;29;9416;-65
2022/10/08 02:27:14;;;;;;;;;0.00;0.00;;;;;13.41;76.55;101557.56;4913409;29;9446;-65
2022/10/08 02:30:06;;;;;;;;;0.00;0.00;;;;;13.41;76.57;101568.38;4915301;29;9313;-65
2022/10/08 02:32:41;;;;;;;;;2.33;0.00;;;;;13.40;76.65;101564.00;4921691;29;9258;-65
2022/10/08 02:35:18;;;;;;;;;1.00;1.00;;;;;13.41;76.60;101568.38;4911897;29;9220;-65
2022/10/08 02:37:51;;;;;;;;;0.00;0.00;;;;;13.39;76.54;101567.75;4913313;29;9274;-65
2022/10/08 02:40:19;;;;;;;;;1.00;1.00;;;;;13.39;76.82;101571.28;4912251;29;9252;-65
2022/10/08 02:42:53;;;;;;;;;0.00;0.00;;;;;13.38;76.68;101571.50;4896954;29;9213;-65
2022/10/08 02:45:28;;;;;;;;;1.00;1.00;;;;;13.38;76.81;101576.91;4916123;29;9260;-65
2022/10/08 02:48:04;;;;;;;;;0.00;0.00;;;;;13.36;76.60;101564.38;4899914;29;9512;-64
2022/10/08 02:50:34;;;;;;;;;0.00;0.00;;;;;13.38;76.79;101571.50;4894670;29;10072;-65
2022/10/08 02:53:01;;;;;;;;;0.00;0.00;;;;;13.35;76.65;101568.13;4913217;29;9354;-65
2022/10/08 02:55:28;;;;;;;;;1.00;0.00;;;;;13.35;76.62;101578.94;4913761;29;10017;-65
2022/10/08 02:58:07;;;;;;;;;0.00;0.00;;;;;13.32;76.24;101581.19;4913366;29;9249;-65
2022/10/08 03:00:39;;;;;;;;;1.00;1.00;;;;;13.29;76.31;101585.16;4913313;29;9370;-65
2022/10/08 03:03:13;;;;;;;;;1.00;1.00;;;;;13.25;76.29;101583.88;4915055;29;9424;-65
2022/10/08 03:05:42;;;;;;;;;1.00;1.00;;;;;13.24;76.43;101584.88;4917006;29;9509;-65
2022/10/08 03:08:13;;;;;;;;;0.00;0.00;;;;;13.23;76.18;101588.63;4916665;29;9416;-65
2022/10/08 03:10:42;;;;;;;;;0.00;0.00;;;;;13.20;76.34;101591.66;4916454;29;9333;-65
2022/10/08 03:13:11;;;;;;;;;0.00;0.00;;;;;13.19;76.20;101599.97;4917356;29;9893;-65
2022/10/08 03:15:40;;;;;;;;;0.00;0.00;;;;;13.16;76.24;101598.50;4919545;29;9269;-65
2022/10/08 03:18:08;;;;;;;;;1.33;0.00;;;;;13.13;75.94;101600.78;4899669;29;9262;-65
2022/10/08 03:20:43;;;;;;;;;1.00;1.00;;;;;13.11;76.23;101603.66;4909465;29;9329;-65
2022/10/08 03:23:12;;;;;;;;;1.00;1.00;;;;;13.08;75.99;101606.72;4930863;29;9625;-65
2022/10/08 03:25:38;;;;;;;;;0.00;0.00;;;;;13.06;76.19;101611.50;4916052;29;9353;-65
2022/10/08 03:28:05;;;;;;;;;0.00;0.00;;;;;13.03;76.05;101610.00;4923221;29;9321;-66
2022/10/08 03:30:31;;;;;;;;;0.33;0.33;;;;;13.00;75.92;101607.69;4916238;29;9291;-65
2022/10/08 03:32:57;;;;;;;;;1.00;1.00;;;;;12.99;75.91;101611.41;4913293;29;9525;-65
2022/10/08 03:35:24;;;;;;;;;0.50;0.50;;;;;12.97;76.01;101607.25;4935020;29;9416;-65
2022/10/08 03:37:52;;;;;;;;;2.00;1.00;;;;;12.94;75.91;101611.16;4918294;29;9478;-65
2022/10/08 03:40:20;;;;;;;;;1.00;1.00;;;;;12.93;76.07;101605.97;4915702;29;9543;-65
2022/10/08 03:42:46;;;;;;;;;1.25;1.25;;;;;12.94;76.38;101613.03;4914846;29;9592;-65
2022/10/08 03:45:13;;;;;;;;;1.00;1.00;;;;;12.94;76.26;101613.03;4919447;29;9571;-65
2022/10/08 03:47:40;;;;;;;;;0.00;0.00;;;;;12.95;76.25;101614.69;4918861;29;9579;-65
2022/10/08 03:50:06;;;;;;;;;1.75;1.50;;;;;12.94;76.40;101621.97;4914751;29;9478;-65
2022/10/08 03:52:33;;;;;;;;;1.00;1.00;;;;;12.94;76.46;101621.13;4915945;29;9616;-65
2022/10/08 03:54:59;;;;;;;;;1.00;1.00;;;;;12.93;76.46;101623.00;4916148;29;9446;-64
2022/10/08 03:57:25;;;;;;;;;1.00;1.00;;;;;12.92;76.16;101626.72;4915878;29;9506;-65
2022/10/08 03:59:52;;;;;;;;;1.75;1.00;;;;;12.92;76.36;101631.28;4908395;29;10021;-65
2022/10/08 04:02:19;;;;;;;;;1.00;1.00;;;;;12.91;76.42;101632.31;4927226;29;9482;-65
2022/10/08 04:04:45;;;;;;;;;2.00;1.00;;;;;12.87;76.45;101630.00;4934703;28;9762;-65
2022/10/08 04:07:11;;;;;;;;;2.67;1.67;;;;;12.86;76.56;101633.72;4934422;29;9482;-65
2022/10/08 04:09:38;;;;;;;;;1.00;1.00;;;;;12.83;76.47;101630.56;4931018;29;10104;-65
2022/10/08 04:12:04;;;;;;;;;2.00;1.00;;;;;12.83;76.45;101628.69;4913839;29;9447;-65
2022/10/08 04:14:30;;;;;;;;;1.25;0.25;;;;;12.83;76.24;101642.22;4913239;29;9408;-64
2022/10/08 04:16:57;;;;;;;;;0.50;0.50;;;;;12.82;76.25;101642.41;4931491;29;9478;-65
2022/10/08 04:19:23;;;;;;;;;0.75;0.00;;;;;12.79;76.31;101646.31;4934300;29;9421;-65
2022/10/08 04:21:50;;;;;;;;;0.00;0.00;;;;;12.79;76.17;101649.00;4932821;29;10191;-64
2022/10/08 04:24:16;;;;;;;;;1.00;1.00;;;;;12.75;76.17;101645.00;4932978;29;9617;-65
2022/10/08 04:26:42;;;;;;;;;0.67;0.67;;;;;12.73;75.97;101652.47;4922187;29;9697;-65
2022/10/08 04:29:11;;;;;;;;;0.67;0.67;;;;;12.73;76.20;101646.25;4919891;29;9411;-65
2022/10/08 04:31:38;;;;;;;;;1.00;0.25;;;;;12.73;76.44;101649.78;4928367;29;9334;-65
2022/10/08 04:34:05;;;;;;;;;0.00;0.00;;;;;12.73;75.96;101648.94;4915013;29;9473;-65
2022/10/08 04:36:32;;;;;;;;;1.00;0.00;;;;;12.74;76.12;101654.16;4914566;29;9540;-65
2022/10/08 04:38:58;;;;;;;;;1.00;1.00;;;;;12.73;76.07;101655.19;4911795;29;9609;-65
2022/10/08 04:41:25;;;;;;;;;1.00;0.25;;;;;12.72;76.00;101660.75;4920355;29;9490;-65
2022/10/08 04:43:54;;;;;;;;;1.00;1.00;;;;;12.69;75.92;101659.28;4926714;29;9482;-65
2022/10/08 04:46:23;;;;;;;;;1.25;1.00;;;;;12.69;75.87;101667.41;4898911;23;9565;31
2022/10/08 04:48:52;;;;;;;;;0.00;0.00;;;;;12.68;75.73;101668.44;4933060;29;9480;-67
2022/10/08 04:51:23;;;;;;;;;1.00;1.00;;;;;12.67;75.81;101658.63;4934298;28;9463;-66
2022/10/08 04:53:51;;;;;;;;;1.00;1.00;;;;;12.65;75.78;101663.41;4942321;28;9549;-66
2022/10/08 04:56:20;;;;;;;;;0.50;0.50;;;;;12.65;75.77;101663.41;4953040;28;9426;-65
2022/10/08 04:58:47;;;;;;;;;0.50;0.50;;;;;12.63;75.78;101670.84;4953321;28;10261;-65
2022/10/08 05:01:17;;;;;;;;;2.00;1.00;;;;;12.62;75.50;101671.88;4925048;28;9635;-65
2022/10/08 05:03:46;;;;;;;;;0.00;0.00;;;;;12.59;75.50;101669.53;4927391;29;10431;-65
2022/10/08 05:06:15;;;;;;;;;0.00;0.00;;;;;12.56;75.56;101672.63;4935408;28;9675;-65
2022/10/08 05:08:42;;;;;;;;;0.75;0.75;;;;;12.55;75.45;101673.63;4945066;28;10344;-65
2022/10/08 05:11:09;;;;;;;;;0.25;0.25;;;;;12.53;75.39;101678.41;4952693;28;9632;-64
2022/10/08 05:13:36;;;;;;;;;0.00;0.00;;;;;12.51;75.41;101685.84;4952779;28;9615;-66
2022/10/08 05:16:12;;;;;;;;;0.00;0.00;;;;;12.48;75.37;101686.22;4950839;28;9743;-65
2022/10/08 05:18:40;;;;;;;;;1.50;0.00;;;;;12.47;75.35;101692.63;4929992;29;9470;-64
2022/10/08 05:21:13;;;;;;;;;0.00;0.00;;;;;12.47;75.09;101689.94;4938782;28;9460;-65
2022/10/08 05:23:41;;;;;;;;;1.25;1.25;;;;;12.46;75.13;101689.09;4947602;28;9634;-63
2022/10/08 05:26:16;;;;;;;;;0.00;0.00;;;;;12.45;75.15;101692.81;4944770;28;9647;-65
2022/10/08 05:28:45;;;;;;;;;0.00;0.00;;;;;12.44;75.22;101696.56;4941652;29;9462;-65
2022/10/08 05:31:13;;;;;;;;;0.00;0.00;;;;;12.46;74.83;101701.75;4927887;29;9767;-66
2022/10/08 05:33:49;;;;;;;;;0.00;0.00;;;;;12.46;74.65;101701.75;4924098;29;9683;-65
2022/10/08 05:36:23;;;;;;;;;0.00;0.00;;;;;12.46;74.68;101709.88;4943019;28;9716;-65
2022/10/08 05:38:49;;;;;;;;;0.00;0.00;;;;;12.45;74.62;101719.84;4939365;28;9725;-64
2022/10/08 05:41:20;;;;;;;;;0.50;0.50;;;;;12.44;74.28;101709.22;4947604;29;9591;-64
2022/10/08 05:43:48;;;;;;;;;0.00;0.00;;;;;12.43;74.52;101719.16;4930664;29;9628;-64
2022/10/08 05:46:15;;;;;;;;;1.00;1.00;;;;;12.41;74.44;101725.78;4917613;29;9592;-64
2022/10/08 05:48:44;;;;;;;;;0.00;0.00;;;;;12.42;74.24;101719.34;4912783;29;9545;-64
2022/10/08 05:51:15;;;;;;;;;0.00;0.00;;;;;12.41;74.00;101729.31;4933512;28;9769;-66
2022/10/08 05:53:48;;;;;;;;;0.00;0.00;;;;;12.42;73.77;101738.25;4936086;29;9474;-64
2022/10/08 05:56:17;;;;;;;;;0.75;0.75;;;;;12.43;73.55;101734.53;4940791;28;9706;-64
2022/10/08 05:58:45;;;;;;;;;0.00;0.00;;;;;12.44;73.58;101744.34;4952319;28;9600;-64
2022/10/08 06:01:13;;;;;;;;;1.25;0.75;;;;;12.45;74.03;101748.69;4951812;28;9560;-65
2022/10/08 06:03:40;;;;;;;;;0.00;0.00;;;;;12.46;73.86;101753.06;4937129;28;9648;-64
2022/10/08 06:06:10;;;;;;;;;1.50;0.75;;;;;12.42;73.85;101758.00;4941523;29;9711;-64
2022/10/08 06:08:37;;;;;;;;;0.00;0.00;;;;;12.39;73.76;101758.34;4952261;28;9626;-64
2022/10/08 06:11:05;;;;;;;;;0.00;0.00;;;;;12.36;73.27;101761.44;4960766;28;9495;-64
2022/10/08 06:13:32;;;;;;;;;0.00;0.00;;;;;12.37;73.58;101757.72;4932151;29;9494;-64
2022/10/08 06:16:01;;;;;;;;;1.00;0.00;;;;;12.37;73.41;101769.34;4932733;29;9538;-64
2022/10/08 06:18:31;;;;;;;;;0.25;0.25;;;;;12.37;72.93;101774.75;4927950;29;9645;-65
2022/10/08 06:21:05;;;;;;;;;0.00;0.00;;;;;12.40;73.04;101778.97;4935156;29;9557;-65
2022/10/08 06:23:33;;;;;;;;;0.00;0.00;;;;;12.43;73.08;101777.72;4928883;29;9487;-63
2022/10/08 06:26:08;;;;;;;;;0.00;0.00;;;;;12.47;73.26;101785.28;4939424;28;9483;-64
2022/10/08 06:28:36;;;;;;;;;0.00;0.00;;;;;12.51;73.37;101788.47;4921147;29;9471;-64
2022/10/08 06:31:04;;;;;;;;;0.00;0.00;;;;;12.54;73.26;101794.34;4939324;29;10326;-63
2022/10/08 06:33:31;;;;;;;;;0.50;0.50;;;;;12.57;73.22;101795.84;4940936;28;9608;-64
2022/10/08 06:36:12;;;;;;;;;1.00;1.00;;;;;12.61;73.17;101802.56;4953784;28;9572;-64
2022/10/08 06:38:38;;;;;;;;;0.75;0.75;;;;;12.64;73.19;101807.59;4935358;29;9440;-63
2022/10/08 06:41:05;;;;;;;;;1.00;1.00;;;;;12.65;73.05;101811.13;4939083;28;9563;-64
2022/10/08 06:43:31;;;;;;;;;1.00;1.00;;;;;12.60;72.71;101817.09;4942436;28;10257;-65
2022/10/08 06:45:59;;;;;;;;;1.00;0.50;;;;;12.58;72.81;101819.94;4918701;28;9551;-64
2022/10/08 06:48:26;;;;;;;;;1.00;1.00;;;;;12.60;72.75;101822.50;4934895;28;9633;-65
2022/10/08 06:51:01;;;;;;;;;1.00;0.50;;;;;12.58;72.45;101825.34;4931762;29;9757;-65
2022/10/08 06:53:27;;;;;;;;;0.00;0.00;;;;;12.56;72.25;101829.28;4942186;28;9627;-64
2022/10/08 06:55:58;;;;;;;;;0.00;0.00;;;;;12.48;72.30;101832.06;4923632;28;9665;-66
2022/10/08 06:58:25;;;;;;;;;2.00;0.50;;;;;12.47;72.25;101835.75;4928149;29;9508;-65
2022/10/08 07:01:01;;;;;;;;;0.00;0.00;;;;;12.49;72.44;101842.66;4937178;29;9548;-64
2022/10/08 07:03:28;;;;;;;;;1.00;1.00;;;;;12.51;72.58;101839.78;4938750;28;9610;-66
2022/10/08 07:05:54;;;;;;;;;1.00;1.00;;;;;12.52;72.47;101844.16;4937310;29;10713;-64
2022/10/08 07:08:20;;;;;;;;;2.00;1.00;;;;;12.54;72.38;101850.22;4934181;29;9556;-67
2022/10/08 07:10:48;;;;;;;;;0.00;0.00;;;;;12.59;72.45;101859.44;4943388;29;9559;-66
2022/10/08 07:13:15;;;;;;;;;1.50;0.50;;;;;12.61;72.21;101860.09;4935885;29;9596;-67
2022/10/08 07:15:41;;;;;;;;;1.00;1.00;;;;;12.60;72.26;101865.72;4916790;29;9752;-67
2022/10/08 07:18:10;;;;;;;;;0.00;0.00;;;;;12.62;72.04;101869.06;4930840;28;9636;-67
2022/10/08 07:20:38;;;;;;;;;1.00;0.00;;;;;12.66;71.92;101870.38;4944982;28;9554;-65
2022/10/08 07:23:04;;;;;;;;;1.00;0.67;;;;;12.67;71.90;101872.03;4935802;29;9619;-66
2022/10/08 07:25:31;;;;;;;;;0.50;0.00;;;;;12.73;71.98;101882.13;4939704;29;9408;-65
2022/10/08 07:27:58;;;;;;;;;0.33;0.33;;;;;12.81;71.74;101879.34;4932820;29;9408;-65
2022/10/08 07:30:24;;;;;;;;;3.00;0.00;;;;;12.86;71.70;101887.72;4929041;28;9334;-64
2022/10/08 07:32:52;;;;;;;;;0.00;0.00;;;;;12.93;71.28;101892.41;4938502;28;9600;-64
2022/10/08 07:35:18;;;;;;;;;0.00;0.00;;;;;13.00;71.08;101899.56;4932543;29;9520;-64
2022/10/08 07:37:45;;;;;;;;;1.33;1.33;;;;;12.95;70.55;101898.47;4927607;29;9429;-64
2022/10/08 07:40:11;;;;;;;;;0.67;0.33;;;;;13.00;70.35;101902.28;4952307;28;9343;-65
2022/10/08 07:42:38;;;;;;;;;1.00;1.00;;;;;12.99;70.95;101908.72;4928362;29;9396;-65
2022/10/08 07:45:04;;;;;;;;;2.00;1.00;;;;;12.98;70.66;101911.63;4916251;29;9341;-64
2022/10/08 07:47:31;;;;;;;;;1.00;1.00;;;;;12.92;70.42;101917.75;4927693;28;9434;-64
2022/10/08 07:49:57;;;;;;;;;0.33;0.00;;;;;12.87;70.12;101924.53;4935229;28;9419;-64
2022/10/08 07:52:24;;;;;;;;;0.33;0.00;;;;;12.84;69.62;101934.88;4924352;29;9406;-66
2022/10/08 07:54:51;;;;;;;;;0.33;0.00;;;;;12.81;69.28;101936.09;4946591;28;9309;-65
2022/10/08 07:57:17;;;;;;;;;0.00;0.00;;;;;12.74;69.26;101940.53;4927747;28;9448;-64
2022/10/08 07:59:44;;;;;;;;;0.00;0.00;;;;;12.70;69.82;101939.22;4935915;28;9489;-65
2022/10/08 08:02:11;;;;;;;;;3.00;0.33;;;;;12.65;70.45;101943.50;4930174;28;9534;-66
2022/10/08 08:04:37;;;;;;;;;1.75;1.75;;;;;12.60;70.68;101950.28;4922986;29;9416;-67
2022/10/08 08:07:03;;;;;;;;;0.75;0.75;;;;;12.65;70.93;101951.59;4930959;29;9459;-67
2022/10/08 08:09:30;;;;;;;;;0.00;0.00;;;;;12.68;71.01;101953.91;4932934;29;9473;-67
2022/10/08 08:11:56;;;;;;;;;1.00;0.75;;;;;12.71;70.97;101949.00;4935690;28;9378;-65
2022/10/08 08:14:22;;;;;;;;;0.00;0.00;;;;;12.75;70.89;101952.19;4945197;28;9491;-66
2022/10/08 08:16:49;;;;;;;;;0.00;0.00;;;;;12.76;70.69;101964.66;4945693;28;9540;-67
2022/10/08 08:19:15;;;;;;;;;0.50;0.00;;;;;12.71;70.07;101973.31;4929157;28;9439;-67
2022/10/08 08:21:42;;;;;;;;;2.00;0.00;;;;;12.74;70.24;101969.41;4932531;28;9418;-67
2022/10/08 08:24:11;;;;;;;;;0.00;0.00;;;;;12.80;70.25;101968.69;4945762;28;9337;-67
2022/10/08 08:26:40;;;;;;;;;3.00;1.75;;;;;12.87;71.20;101981.28;4936318;28;9397;-67
2022/10/08 08:29:09;;;;;;;;;1.00;1.00;;;;;12.90;70.83;101992.75;4924183;28;9461;-67
2022/10/08 08:31:38;;;;;;;;;1.75;0.00;;;;;12.83;70.40;101981.84;4952946;28;9342;-65
2022/10/08 08:34:14;;;;;;;;;1.00;1.00;;;;;12.83;70.33;101984.53;4934004;28;9593;-67
2022/10/08 08:36:43;;;;;;;;;0.75;0.75;;;;;12.89;70.68;101988.38;4927652;29;10244;-67
2022/10/08 08:39:17;;;;;;;;;1.00;1.00;;;;;12.91;70.71;101991.72;4933131;29;9437;-66
2022/10/08 08:42:12;;;;;;;;;4.00;1.00;;;;;12.95;70.91;101998.47;4932190;29;9617;-67
2022/10/08 08:44:41;;;;;;;;;1.00;1.00;;;;;12.99;70.80;102000.63;4919756;29;9475;-67
2022/10/08 08:47:16;;;;;;;;;2.00;2.00;;;;;13.11;70.92;101998.31;4918905;29;9478;-66
2022/10/08 08:49:49;;;;;;;;;1.00;1.00;;;;;13.08;71.01;102004.94;4922308;29;9460;-68
2022/10/08 08:52:20;;;;;;;;;2.67;0.00;;;;;13.17;70.68;102005.72;4927051;28;9422;-68
2022/10/08 08:54:52;;;;;;;;;0.00;0.00;;;;;13.26;70.83;102012.75;4945448;28;9503;-68
2022/10/08 08:57:31;;;;;;;;;2.00;0.67;;;;;13.34;71.17;102019.94;4941551;28;9436;-67
2022/10/08 09:00:16;;;;;;;;;1.00;1.00;;;;;13.33;71.07;102024.53;4917964;29;9431;-68
2022/10/08 09:02:56;;;;;;;;;1.00;1.00;;;;;13.44;70.73;102022.38;4915746;29;9410;-67
2022/10/08 09:05:27;;;;;;;;;0.67;0.67;;;;;13.42;69.98;102014.47;4927454;29;9316;-68
2022/10/08 09:08:04;;;;;;;;;0.67;0.00;;;;;13.46;69.36;102026.59;4938907;28;9428;-66
2022/10/08 09:10:51;;;;;;;;;1.00;0.00;;;;;13.58;69.21;102030.53;4942742;28;9264;-68
2022/10/08 09:13:23;;;;;;;;;1.00;0.33;;;;;13.65;69.27;102037.88;4951216;28;9175;-68
2022/10/08 09:15:51;;;;;;;;;1.00;0.33;;;;;13.71;69.09;102037.16;4920980;28;9427;-65
2022/10/08 09:18:18;;;;;;;;;0.00;0.00;;;;;13.73;68.59;102045.91;4914634;29;9286;-68
2022/10/08 09:20:44;;;;;;;;;1.00;1.00;;;;;13.70;67.85;102039.03;4915229;29;9403;-66
2022/10/08 09:23:17;;;;;;;;;3.33;0.00;;;;;13.66;65.79;102045.00;4943005;28;10044;-66
2022/10/08 09:25:50;;;;;;;;;0.00;0.00;;;;;13.67;65.48;102044.81;4937854;28;10055;-66
2022/10/08 09:28:44;;;;;;;;;0.33;0.33;;;;;13.71;65.70;102054.22;4942633;29;9130;-65
2022/10/08 09:31:25;;;;;;;;;1.00;0.33;;;;;13.68;64.95;102061.88;4932999;29;9348;-65
2022/10/08 09:34:00;;;;;;;;;0.67;0.67;;;;;13.67;65.09;102066.44;4925914;29;9249;-66
2022/10/08 09:36:30;;;;;;;;;0.33;0.33;;;;;13.72;64.23;102064.03;4933056;29;9173;-66
2022/10/08 09:38:58;;;;;;;;;1.00;1.00;;;;;13.75;64.30;102066.38;4926891;28;9977;-65
2022/10/08 09:41:27;;;;;;;;;0.00;0.00;;;;;13.83;63.54;102068.16;4931850;29;9255;-65
2022/10/08 09:44:23;;;;;;;;;1.00;1.00;;;;;13.84;62.61;102073.38;4923760;29;9374;-66
2022/10/08 09:47:04;;;;;;;;;1.00;1.00;;;;;13.91;62.14;102075.34;4903960;29;9150;-66
2022/10/08 09:49:33;;;;;;;;;1.67;0.00;;;;;13.90;61.56;102071.81;4912749;29;9243;-65
2022/10/08 09:52:09;;;;;;;;;1.00;0.00;;;;;13.94;61.49;102080.41;4934284;29;9192;-65
2022/10/08 09:54:47;;;;;;;;;0.67;0.67;;;;;14.01;61.86;102082.13;4925592;29;9950;-64
2022/10/08 09:57:17;;;;;;;;;0.67;0.67;;;;;14.05;60.55;102088.88;4923899;29;9106;-66
2022/10/08 09:59:53;;;;;;;;;1.00;1.00;;;;;14.07;61.16;102089.53;4933870;29;9099;-66
2022/10/08 10:02:32;;;;;;;;;3.33;1.00;;;;;14.14;60.89;102091.47;4918371;29;9099;-66
2022/10/08 10:05:01;;;;;;;;;0.00;0.00;;;;;14.08;61.02;102093.91;4917390;29;9264;-66
2022/10/08 10:07:38;;;;;;;;;0.67;0.00;;;;;14.10;60.68;102096.44;4937740;28;9234;-65
2022/10/08 10:10:16;;;;;;;;;1.00;1.00;;;;;14.09;60.47;102094.75;4923670;29;8929;-64
2022/10/08 10:12:47;;;;;;;;;2.00;1.00;;;;;14.11;60.54;102092.72;4928197;29;9111;-66
2022/10/08 10:15:18;;;;;;;;;1.67;1.67;;;;;14.07;61.05;102104.94;4917558;29;9340;-65
2022/10/08 10:17:56;;;;;;;;;0.00;0.00;;;;;14.07;60.29;102108.47;4925791;29;9180;-66
2022/10/08 10:20:32;;;;;;;;;0.00;0.00;;;;;14.08;60.08;102109.31;4927374;29;9169;-67
2022/10/08 10:23:54;;;;;;;;;2.00;0.33;;;;;14.05;59.89;102106.97;4937216;28;9169;-65
2022/10/08 10:26:29;;;;;;;;;1.00;1.00;;;;;14.11;60.25;102108.97;4895223;29;9027;-64
2022/10/08 10:29:01;;;;;;;;;0.00;0.00;;;;;14.21;60.55;102106.78;4932626;29;9876;-67
2022/10/08 10:31:38;;;;;;;;;0.00;0.00;;;;;14.25;60.63;102109.97;4919326;29;9021;-65
2022/10/08 10:34:20;;;;;;;;;0.00;0.00;;;;;14.32;60.79;102121.75;4944762;29;9011;-65
2022/10/08 10:36:51;;;;;;;;;1.00;0.00;;;;;14.30;59.91;102121.94;4940298;28;9015;-66
2022/10/08 10:39:36;;;;;;;;;1.00;0.00;;;;;14.31;59.32;102131.75;4936927;29;9225;-65
2022/10/08 10:42:21;;;;;;;;;1.00;1.00;;;;;14.34;58.17;102125.97;4924345;29;9114;-65
2022/10/08 10:44:52;;;;;;;;;1.33;0.00;;;;;14.38;57.83;102128.25;4929002;29;9084;-66
2022/10/08 10:47:24;;;;;;;;;0.00;0.00;;;;;14.41;57.27;102136.03;4931563;28;9111;-68
2022/10/08 10:49:59;;;;;;;;;0.00;0.00;;;;;14.41;56.98;102134.16;4922422;28;9169;-67
2022/10/08 10:52:39;;;;;;;;;2.00;0.00;;;;;14.43;55.68;102139.41;4938873;29;9181;-68
2022/10/08 10:55:27;;;;;;;;;0.00;0.00;;;;;14.42;55.69;102143.13;4931897;29;9076;-67
2022/10/08 10:58:07;;;;;;;;;1.00;0.00;;;;;14.39;56.08;102143.50;4932672;29;9077;-68
2022/10/08 11:00:56;;;;;;;;;0.00;0.00;;;;;14.39;56.85;102143.50;4930105;29;9200;-66
2022/10/08 11:03:43;;;;;;;;;2.00;1.00;;;;;14.40;56.90;102146.03;4928320;29;9056;-67
2022/10/08 11:06:34;;;;;;;;;1.00;1.00;;;;;14.47;57.10;102144.25;4924425;29;8942;-68
2022/10/08 11:09:05;;;;;;;;;0.00;0.00;;;;;14.48;56.76;102148.63;4917879;28;9023;-67
2022/10/08 11:11:51;;;;;;;;;0.00;0.00;;;;;14.49;56.65;102153.03;4937308;29;8943;-67
2022/10/08 11:14:38;;;;;;;;;0.00;0.00;;;;;14.51;56.64;102153.72;4925012;28;8977;-66
2022/10/08 11:17:23;;;;;;;;;1.33;1.00;;;;;14.41;55.92;102157.69;4926097;28;9149;-67
2022/10/08 11:20:02;;;;;;;;;1.00;0.00;;;;;14.32;55.39;102143.41;4935601;28;9078;-68
2022/10/08 11:22:43;;;;;;;;;1.00;1.00;;;;;14.37;55.93;102153.69;4943060;28;9010;-69
2022/10/08 11:25:36;;;;;;;;;0.00;0.00;;;;;14.28;55.45;102150.22;4932184;28;9005;-68
2022/10/08 11:28:40;;;;;;;;;2.00;0.00;;;;;14.49;55.68;102161.19;4943306;28;9089;-66
2022/10/08 11:31:26;;;;;;;;;0.00;0.00;;;;;14.58;55.55;102157.38;4937908;29;9192;-66
2022/10/08 11:33:55;;;;;;;;;1.00;0.67;;;;;14.66;54.77;102156.38;4924178;29;9170;-66
2022/10/08 11:36:50;;;;;;;;;1.00;0.00;;;;;14.72;54.97;102161.06;4935294;29;9182;-66
2022/10/08 11:39:30;;;;;;;;;0.33;0.00;;;;;14.78;55.06;102167.59;4912572;29;9367;-66
2022/10/08 11:42:31;;;;;;;;;1.00;1.00;;;;;14.79;55.15;102163.88;4925157;29;9118;-65
2022/10/08 11:45:30;;;;;;;;;1.33;0.00;;;;;14.70;54.98;102168.53;4934185;28;9084;-66
2022/10/08 11:47:59;;;;;;;;;0.00;0.00;;;;;14.70;55.45;102171.25;4945940;28;9309;-65
2022/10/08 11:50:33;;;;;;;;;0.00;0.00;;;;;14.73;56.19;102168.16;4946940;28;9177;-65
2022/10/08 11:53:08;;;;;;;;;0.33;0.00;;;;;14.76;56.21;102161.53;4951119;28;9018;-66
2022/10/08 11:55:35;;;;;;;;;0.33;0.33;;;;;14.82;56.00;102167.00;4938172;28;9013;-67
2022/10/08 11:58:16;;;;;;;;;1.00;1.00;;;;;14.77;55.95;102165.91;4945672;28;8948;-66
2022/10/08 12:00:45;;;;;;;;;0.00;0.00;;;;;14.69;56.08;102180.41;4930344;28;9027;-67
2022/10/08 12:03:42;;;;;;;;;0.00;0.00;;;;;14.66;56.56;102172.66;4938949;28;9068;-65